createdAt,value
2022-11-11T00:00:49.641Z,94.31
2022-11-11T00:03:11.083Z,95.16
2022-11-11T00:05:34.619Z,93.57
2022-11-11T00:07:59.475Z,93.82
2022-11-11T00:10:21.216Z,95.04
2022-11-11T00:12:42.628Z,93.69
2022-11-11T00:15:04.648Z,95.06
2022-11-11T00:17:43.700Z,93.67
2022-11-11T00:20:24.701Z,94.55
2022-11-11T00:23:04.597Z,95.06
2022-11-11T00:25:27.834Z,96.05
2022-11-11T00:27:49.433Z,95.31
2022-11-11T00:30:11.732Z,95.18
2022-11-11T00:32:34.000Z,94.83
2022-11-11T00:35:14.873Z,96.19
2022-11-11T00:37:37.062Z,95.58
2022-11-11T00:39:58.746Z,95.01
2022-11-11T00:42:22.414Z,94.82
2022-11-11T00:44:44.473Z,93.95
2022-11-11T00:47:23.821Z,93.82
2022-11-11T00:50:02.777Z,95.33
2022-11-11T00:52:24.423Z,95.41
2022-11-11T00:54:45.961Z,93.98
2022-11-11T00:57:07.730Z,95.17
2022-11-11T00:59:30.779Z,95.11
2022-11-11T01:01:52.187Z,93.93
2022-11-11T01:04:13.838Z,93.45
2022-11-11T01:06:35.367Z,93.78
2022-11-11T01:08:57.107Z,93.79
2022-11-11T01:11:20.092Z,94.33
2022-11-11T01:13:42.116Z,96.00
2022-11-11T01:16:09.893Z,95.19
2022-11-11T01:18:31.584Z,95.55
2022-11-11T01:21:06.043Z,95.83
2022-11-11T01:23:28.316Z,95.24
2022-11-11T01:25:49.750Z,95.55
2022-11-11T01:28:11.341Z,96.33
2022-11-11T01:30:33.994Z,95.43
2022-11-11T01:32:56.619Z,95.91
2022-11-11T01:35:18.298Z,95.58
2022-11-11T01:37:40.079Z,95.40
2022-11-11T01:40:01.942Z,95.49
2022-11-11T01:42:23.718Z,95.03
2022-11-11T01:44:48.164Z,95.24
2022-11-11T01:47:10.037Z,95.85
2022-11-11T01:49:35.015Z,94.78
2022-11-11T01:52:00.774Z,95.03
2022-11-11T01:54:25.548Z,95.73
2022-11-11T01:56:49.918Z,95.33
2022-11-11T01:59:14.109Z,95.28
2022-11-11T02:01:36.426Z,95.31
2022-11-11T02:04:16.043Z,96.12
2022-11-11T02:06:39.874Z,96.29
2022-11-11T02:09:02.122Z,95.66
2022-11-11T02:11:39.478Z,95.65
2022-11-11T02:14:18.531Z,96.13
2022-11-11T02:16:40.241Z,94.88
2022-11-11T02:19:02.731Z,95.27
2022-11-11T02:21:29.892Z,95.73
2022-11-11T02:23:59.958Z,95.67
2022-11-11T02:26:22.303Z,96.32
2022-11-11T02:28:44.198Z,95.74
2022-11-11T02:31:06.158Z,96.01
2022-11-11T02:33:28.278Z,95.02
2022-11-11T02:35:56.301Z,94.96
2022-11-11T02:38:18.105Z,96.10
2022-11-11T02:41:03.379Z,95.03
2022-11-11T02:43:25.641Z,94.92
2022-11-11T02:45:47.422Z,94.88
2022-11-11T02:48:09.360Z,95.26
2022-11-11T02:50:31.064Z,95.65
2022-11-11T02:52:52.726Z,95.77
2022-11-11T02:55:14.618Z,94.50
2022-11-11T02:57:37.747Z,95.71
2022-11-11T03:00:01.234Z,94.79
2022-11-11T03:02:27.948Z,94.37
2022-11-11T03:04:49.937Z,94.33
2022-11-11T03:07:11.636Z,95.07
2022-11-11T03:09:33.739Z,93.85
2022-11-11T03:11:55.295Z,94.52
2022-11-11T03:14:18.799Z,94.16
2022-11-11T03:16:58.205Z,93.79
2022-11-11T03:19:20.505Z,93.29
2022-11-11T03:24:22.991Z,93.69
2022-11-11T03:26:43.216Z,93.48
2022-11-11T03:29:05.492Z,93.71
2022-11-11T03:31:28.449Z,94.44
2022-11-11T03:33:50.516Z,94.08
2022-11-11T03:36:12.083Z,93.64
2022-11-11T03:38:32.852Z,93.92
2022-11-11T03:40:56.686Z,93.21
2022-11-11T03:43:19.993Z,93.64
2022-11-11T03:45:41.969Z,93.44
2022-11-11T03:48:05.790Z,93.72
2022-11-11T03:50:27.555Z,93.60
2022-11-11T03:52:49.552Z,92.79
2022-11-11T03:55:11.157Z,92.69
2022-11-11T03:57:32.957Z,92.89
2022-11-11T03:59:54.565Z,92.80
2022-11-11T04:02:33.701Z,93.63
2022-11-11T04:05:14.248Z,93.55
2022-11-11T04:07:53.786Z,93.82
2022-11-11T04:10:24.282Z,93.72
2022-11-11T04:13:03.184Z,93.98
2022-11-11T04:15:42.422Z,94.21
2022-11-11T04:18:04.531Z,93.86
2022-11-11T04:20:45.109Z,93.72
2022-11-11T04:23:06.936Z,93.55
2022-11-11T04:25:46.159Z,92.87
2022-11-11T04:28:25.188Z,92.64
2022-11-11T04:30:46.776Z,93.27
2022-11-11T04:33:07.466Z,93.47
2022-11-11T04:35:30.669Z,92.76
2022-11-11T04:37:52.015Z,93.67
2022-11-11T04:40:31.780Z,93.16
2022-11-11T04:42:54.477Z,93.14
2022-11-11T04:45:36.109Z,92.49
2022-11-11T04:47:59.715Z,92.71
2022-11-11T04:50:21.548Z,92.14
2022-11-11T04:52:45.332Z,92.28
2022-11-11T04:55:25.427Z,92.25
2022-11-11T04:57:48.857Z,93.04
2022-11-11T05:00:12.345Z,93.62
2022-11-11T05:02:51.306Z,93.99
2022-11-11T05:05:13.418Z,93.22
2022-11-11T05:07:52.866Z,93.32
2022-11-11T05:10:16.447Z,93.43
2022-11-11T05:12:38.287Z,93.70
2022-11-11T05:15:17.219Z,93.64
2022-11-11T05:17:56.494Z,92.81
2022-11-11T05:20:38.920Z,91.99
2022-11-11T05:23:00.910Z,91.84
2022-11-11T05:25:25.770Z,91.97
2022-11-11T05:27:47.277Z,91.61
2022-11-11T05:30:11.172Z,91.28
2022-11-11T05:32:32.837Z,91.89
2022-11-11T05:34:55.064Z,92.18
2022-11-11T05:37:17.804Z,92.38
2022-11-11T05:39:39.451Z,92.42
2022-11-11T05:42:02.681Z,92.24
2022-11-11T05:44:24.789Z,92.25
2022-11-11T05:46:46.221Z,91.47
2022-11-11T05:49:16.982Z,91.48
2022-11-11T05:51:39.307Z,91.64
2022-11-11T05:54:00.900Z,91.58
2022-11-11T05:56:22.582Z,91.96
2022-11-11T05:58:50.376Z,91.74
2022-11-11T06:01:12.234Z,92.06
2022-11-11T06:03:34.047Z,92.27
2022-11-11T06:05:55.582Z,92.63
2022-11-11T06:08:18.376Z,93.08
2022-11-11T06:10:39.924Z,93.56
2022-11-11T06:13:05.229Z,93.13
2022-11-11T06:15:28.317Z,93.38
2022-11-11T06:17:49.573Z,93.44
2022-11-11T06:20:11.993Z,92.65
2022-11-11T06:22:49.630Z,92.20
2022-11-11T06:25:28.737Z,92.73
2022-11-11T06:27:50.492Z,92.84
2022-11-11T06:32:56.491Z,92.33
2022-11-11T06:35:17.873Z,92.34
2022-11-11T06:37:39.256Z,92.40
2022-11-11T06:40:00.807Z,92.62
2022-11-11T06:42:22.672Z,92.53
2022-11-11T06:44:44.464Z,92.16
2022-11-11T06:47:06.116Z,92.19
2022-11-11T06:49:29.081Z,92.53
2022-11-11T06:51:50.629Z,93.25
2022-11-11T06:54:11.962Z,92.79
2022-11-11T06:56:33.617Z,93.31
2022-11-11T06:58:54.858Z,93.37
2022-11-11T07:01:16.310Z,93.72
2022-11-11T07:03:38.448Z,93.20
2022-11-11T07:06:03.286Z,93.62
2022-11-11T07:08:25.432Z,93.42
2022-11-11T07:10:48.831Z,93.98
2022-11-11T07:13:11.687Z,93.45
2022-11-11T07:15:34.256Z,93.68
2022-11-11T07:17:55.861Z,93.20
2022-11-11T07:20:17.296Z,93.40
2022-11-11T07:22:40.640Z,93.21
2022-11-11T07:25:02.425Z,93.90
2022-11-11T07:27:25.182Z,94.17
2022-11-11T07:29:48.543Z,94.50
2022-11-11T07:32:10.268Z,94.58
2022-11-11T07:34:32.744Z,92.98
2022-11-11T07:36:54.313Z,93.48
2022-11-11T07:39:17.171Z,93.53
2022-11-11T07:41:38.680Z,94.35
2022-11-11T07:44:00.186Z,93.08
2022-11-11T07:46:21.622Z,93.43
2022-11-11T07:48:43.188Z,93.34
2022-11-11T07:51:04.543Z,92.97
2022-11-11T07:53:28.304Z,92.88
2022-11-11T07:55:51.328Z,93.82
2022-11-11T07:58:13.018Z,94.10
2022-11-11T08:00:34.614Z,93.49
2022-11-11T08:02:58.961Z,94.17
2022-11-11T08:05:21.252Z,93.45
2022-11-11T08:07:43.368Z,93.79
2022-11-11T08:10:05.054Z,93.74
2022-11-11T08:12:45.693Z,92.75
2022-11-11T08:15:08.532Z,93.49
2022-11-11T08:17:30.458Z,94.26
2022-11-11T08:19:51.749Z,94.58
2022-11-11T08:22:13.363Z,93.26
2022-11-11T08:27:16.549Z,93.47
2022-11-11T08:29:39.267Z,93.76
2022-11-11T08:32:00.924Z,92.81
2022-11-11T08:34:24.829Z,92.67
2022-11-11T08:36:46.445Z,93.90
2022-11-11T08:39:08.439Z,94.07
2022-11-11T08:41:33.118Z,93.17
2022-11-11T08:43:55.327Z,93.33
2022-11-11T08:46:18.009Z,93.12
2022-11-11T08:48:40.126Z,92.71
2022-11-11T08:51:02.048Z,92.97
2022-11-11T08:53:24.143Z,93.04
2022-11-11T08:55:46.345Z,93.44
2022-11-11T08:58:08.279Z,92.25
2022-11-11T09:00:30.165Z,92.73
2022-11-11T09:02:53.079Z,93.40
2022-11-11T09:05:14.810Z,94.39
2022-11-11T09:07:36.656Z,95.04
2022-11-11T09:09:58.081Z,94.37
2022-11-11T09:12:19.781Z,93.63
2022-11-11T09:14:41.098Z,94.33
2022-11-11T09:17:02.767Z,93.46
2022-11-11T09:19:25.648Z,94.38
2022-11-11T09:21:47.544Z,93.34
2022-11-11T09:24:09.336Z,94.14
2022-11-11T09:26:31.128Z,95.07
2022-11-11T09:28:52.514Z,94.48
2022-11-11T09:33:55.667Z,95.08
2022-11-11T09:36:18.649Z,93.57
2022-11-11T09:38:40.340Z,93.91
2022-11-11T09:41:13.787Z,94.14
2022-11-11T09:43:42.122Z,94.77
2022-11-11T09:46:17.366Z,94.46
2022-11-11T09:48:51.965Z,94.29
2022-11-11T09:51:19.826Z,92.99
2022-11-11T09:53:45.366Z,92.93
2022-11-11T09:56:29.755Z,92.93
2022-11-11T09:58:53.979Z,92.73
2022-11-11T10:01:19.697Z,92.20
2022-11-11T10:03:43.672Z,92.47
2022-11-11T10:06:08.927Z,91.13
2022-11-11T10:08:34.546Z,90.55
2022-11-11T10:10:57.858Z,90.06
2022-11-11T10:13:23.415Z,89.11
2022-11-11T10:15:58.147Z,88.07
2022-11-11T10:18:41.935Z,88.45
2022-11-11T10:21:07.009Z,87.46
2022-11-11T10:23:33.336Z,88.00
2022-11-11T10:25:56.442Z,89.18
2022-11-11T10:28:19.456Z,88.40
2022-11-11T10:30:40.960Z,87.61
2022-11-11T10:33:05.147Z,86.52
2022-11-11T10:35:27.769Z,85.23
2022-11-11T10:37:55.252Z,84.38
2022-11-11T10:40:22.586Z,84.31
2022-11-11T10:42:44.437Z,85.06
2022-11-11T10:45:13.961Z,85.26
2022-11-11T10:47:44.000Z,86.37
2022-11-11T10:50:10.801Z,87.01
2022-11-11T10:52:35.144Z,85.15
2022-11-11T10:55:01.911Z,85.79
2022-11-11T10:57:31.236Z,86.50
2022-11-11T10:59:55.486Z,85.31
2022-11-11T11:02:21.752Z,84.87
2022-11-11T11:04:47.483Z,85.05
2022-11-11T11:07:12.343Z,84.57
2022-11-11T11:09:39.269Z,83.25
2022-11-11T11:12:04.585Z,85.28
2022-11-11T11:14:30.886Z,84.31
2022-11-11T11:16:55.746Z,81.98
2022-11-11T11:19:21.581Z,82.82
2022-11-11T11:21:54.278Z,83.17
2022-11-11T11:24:21.063Z,84.93
2022-11-11T11:26:45.608Z,85.80
2022-11-11T11:29:07.256Z,85.68
2022-11-11T11:31:38.514Z,83.55
2022-11-11T11:34:00.005Z,83.07
2022-11-11T11:36:21.717Z,83.41
2022-11-11T11:38:46.553Z,82.69
2022-11-11T11:41:08.526Z,83.18
2022-11-11T11:43:37.523Z,82.53
2022-11-11T11:46:06.929Z,82.30
2022-11-11T11:48:41.471Z,83.18
2022-11-11T11:51:15.430Z,84.14
2022-11-11T11:53:46.448Z,82.45
2022-11-11T11:56:16.980Z,83.69
2022-11-11T11:58:44.260Z,83.15
2022-11-11T12:01:12.834Z,83.15
2022-11-11T12:04:06.199Z,82.38
2022-11-11T12:06:34.564Z,83.35
2022-11-11T12:09:11.105Z,82.73
2022-11-11T12:11:37.182Z,82.87
2022-11-11T12:14:24.398Z,83.18
2022-11-11T12:16:51.504Z,84.14
2022-11-11T12:19:28.014Z,83.00
2022-11-11T12:22:02.920Z,83.37
2022-11-11T12:24:36.575Z,83.71
2022-11-11T12:27:05.434Z,83.49
2022-11-11T12:29:40.434Z,83.14
2022-11-11T12:32:15.923Z,82.40
2022-11-11T12:34:55.996Z,83.16
2022-11-11T12:37:22.098Z,82.39
2022-11-11T12:40:00.568Z,81.75
2022-11-11T12:42:32.908Z,82.02
2022-11-11T12:45:01.497Z,82.43
2022-11-11T12:47:38.507Z,83.01
2022-11-11T12:50:09.203Z,82.15
2022-11-11T12:52:40.143Z,81.98
2022-11-11T12:55:14.245Z,82.22
2022-11-11T12:57:39.630Z,81.40
2022-11-11T13:00:06.956Z,82.34
2022-11-11T13:02:53.659Z,80.29
2022-11-11T13:05:20.620Z,81.58
2022-11-11T13:08:08.914Z,80.29
2022-11-11T13:10:34.895Z,82.20
2022-11-11T13:13:03.926Z,82.01
2022-11-11T13:15:27.250Z,81.28
2022-11-11T13:17:48.843Z,81.61
2022-11-11T13:20:20.984Z,82.46
2022-11-11T13:22:42.859Z,81.13
2022-11-11T13:25:09.659Z,82.61
2022-11-11T13:27:39.346Z,82.71
2022-11-11T13:30:18.504Z,83.47
2022-11-11T13:32:43.121Z,84.97
2022-11-11T13:35:26.039Z,84.05
2022-11-11T13:37:47.850Z,84.85
2022-11-11T13:40:25.233Z,85.61
2022-11-11T13:42:50.815Z,84.83
2022-11-11T13:45:25.485Z,83.29
2022-11-11T13:47:48.677Z,82.80
2022-11-11T13:50:14.961Z,82.33
2022-11-11T13:52:40.221Z,82.89
2022-11-11T13:55:04.161Z,81.78
2022-11-11T13:57:28.658Z,82.55
2022-11-11T13:59:58.139Z,83.85
2022-11-11T14:02:37.252Z,83.48
2022-11-11T14:05:26.973Z,82.41
2022-11-11T14:07:56.355Z,84.17
2022-11-11T14:10:45.418Z,83.05
2022-11-11T14:13:37.370Z,82.51
2022-11-11T14:15:59.341Z,82.72
2022-11-11T14:18:38.110Z,83.31
2022-11-11T14:20:59.910Z,83.77
2022-11-11T14:23:40.092Z,82.50
2022-11-11T14:26:28.951Z,83.05
2022-11-11T14:28:54.311Z,84.72
2022-11-11T14:31:47.309Z,84.23
2022-11-11T14:34:22.101Z,83.91
2022-11-11T14:36:47.887Z,85.24
2022-11-11T14:39:20.100Z,84.17
2022-11-11T14:41:47.778Z,85.22
2022-11-11T14:44:40.132Z,83.55
2022-11-11T14:47:25.669Z,85.21
2022-11-11T14:49:48.265Z,85.23
2022-11-11T14:52:19.721Z,86.58
2022-11-11T14:54:52.562Z,85.51
2022-11-11T14:57:22.043Z,85.40
2022-11-11T14:59:43.828Z,84.75
2022-11-11T15:02:05.928Z,85.71
2022-11-11T15:04:28.616Z,86.74
2022-11-11T15:06:55.413Z,86.21
2022-11-11T15:09:41.442Z,87.75
2022-11-11T15:12:10.372Z,86.95
2022-11-11T15:14:36.640Z,86.30
2022-11-11T15:17:09.665Z,88.44
2022-11-11T15:19:42.405Z,86.72
2022-11-11T15:22:14.404Z,88.50
2022-11-11T15:24:43.839Z,88.64
2022-11-11T15:27:16.525Z,89.02
2022-11-11T15:29:57.490Z,90.33
2022-11-11T15:32:25.259Z,91.13
2022-11-11T15:34:52.137Z,90.69
2022-11-11T15:37:15.715Z,91.61
2022-11-11T15:39:41.150Z,91.48
2022-11-11T15:42:03.783Z,91.76
2022-11-11T15:44:28.513Z,92.48
2022-11-11T15:46:50.702Z,92.32
2022-11-11T15:49:16.135Z,92.98
2022-11-11T15:51:38.153Z,93.06
2022-11-11T15:54:19.779Z,93.56
2022-11-11T15:56:41.223Z,93.86
2022-11-11T15:59:17.663Z,93.65
2022-11-11T16:01:41.774Z,94.03
2022-11-11T16:04:03.862Z,94.26
2022-11-11T16:06:25.850Z,93.93
2022-11-11T16:08:51.883Z,94.55
2022-11-11T16:11:15.592Z,94.12
2022-11-11T16:13:39.755Z,94.46
2022-11-11T16:16:04.685Z,94.66
2022-11-11T16:18:30.097Z,95.08
2022-11-11T16:20:54.523Z,95.12
2022-11-11T16:23:18.544Z,96.09
2022-11-11T16:25:40.055Z,95.97
2022-11-11T16:28:02.067Z,95.32
2022-11-11T16:30:32.719Z,96.75
2022-11-11T16:32:54.217Z,96.88
2022-11-11T16:35:32.454Z,96.46
2022-11-11T16:37:55.617Z,96.26
2022-11-11T16:40:30.020Z,96.91
2022-11-11T16:42:52.337Z,97.26
2022-11-11T16:45:20.946Z,97.31
2022-11-11T16:47:45.091Z,96.79
2022-11-11T16:50:08.136Z,95.95
2022-11-11T16:52:31.801Z,97.01
2022-11-11T16:54:57.383Z,96.33
2022-11-11T16:57:20.384Z,96.70
2022-11-11T16:59:44.497Z,96.69
2022-11-11T17:02:16.811Z,96.15
2022-11-11T17:04:48.131Z,96.79
2022-11-11T17:07:29.895Z,95.99
2022-11-11T17:09:56.378Z,96.07
2022-11-11T17:12:31.610Z,96.15
2022-11-11T17:14:55.692Z,96.38
2022-11-11T17:17:17.435Z,96.05
2022-11-11T17:19:39.050Z,95.33
2022-11-11T17:22:12.204Z,95.34
2022-11-11T17:24:33.788Z,94.79
2022-11-11T17:26:57.469Z,94.89
2022-11-11T17:29:19.241Z,94.44
2022-11-11T17:31:41.203Z,95.25
2022-11-11T17:34:07.384Z,95.40
2022-11-11T17:36:29.267Z,95.87
2022-11-11T17:38:51.091Z,96.61
2022-11-11T17:41:15.298Z,97.12
2022-11-11T17:43:38.714Z,96.67
2022-11-11T17:46:01.868Z,96.67
2022-11-11T17:48:23.376Z,97.49
2022-11-11T17:50:45.299Z,96.71
2022-11-11T17:53:09.895Z,97.14
2022-11-11T17:55:34.646Z,96.13
2022-11-11T17:57:56.851Z,95.78
2022-11-11T18:00:20.141Z,95.53
2022-11-11T18:02:41.393Z,95.34
2022-11-11T18:05:03.058Z,96.48
2022-11-11T18:07:25.009Z,95.06
2022-11-11T18:09:46.411Z,95.86
2022-11-11T18:12:08.407Z,95.89
2022-11-11T18:14:30.188Z,95.50
2022-11-11T18:16:53.344Z,95.67
2022-11-11T18:19:15.206Z,95.94
2022-11-11T18:21:41.990Z,94.74
2022-11-11T18:24:06.856Z,94.94
2022-11-11T18:26:28.701Z,95.62
2022-11-11T18:28:50.700Z,94.79
2022-11-11T18:31:14.521Z,94.83
2022-11-11T18:33:38.960Z,96.12
2022-11-11T18:36:05.074Z,95.31
2022-11-11T18:38:29.997Z,96.16
2022-11-11T18:40:51.522Z,95.58
2022-11-11T18:43:13.438Z,96.28
2022-11-11T18:45:36.940Z,95.67
2022-11-11T18:47:58.560Z,95.44
2022-11-11T18:50:21.840Z,95.33
2022-11-11T18:52:43.770Z,94.94
2022-11-11T18:55:06.345Z,95.19
2022-11-11T18:57:28.843Z,93.88
2022-11-11T18:59:52.070Z,93.54
2022-11-11T19:02:14.303Z,92.93
2022-11-11T19:04:36.202Z,93.43
2022-11-11T19:07:00.076Z,93.59
2022-11-11T19:09:23.661Z,94.02
2022-11-11T19:11:47.910Z,95.10
2022-11-11T19:14:11.292Z,94.51
2022-11-11T19:16:33.594Z,94.93
2022-11-11T19:18:55.386Z,94.46
2022-11-11T19:21:18.310Z,93.29
2022-11-11T19:23:41.985Z,93.05
2022-11-11T19:26:03.549Z,93.41
2022-11-11T19:28:25.290Z,93.34
2022-11-11T19:30:47.120Z,93.38
2022-11-11T19:33:09.624Z,94.39
2022-11-11T19:35:31.798Z,94.16
2022-11-11T19:37:53.652Z,94.47
2022-11-11T19:40:17.193Z,94.36
2022-11-11T19:42:38.776Z,94.58
2022-11-11T19:45:00.258Z,94.30
2022-11-11T19:47:21.756Z,94.33
2022-11-11T19:49:43.414Z,94.81
2022-11-11T19:52:05.141Z,94.84
2022-11-11T19:54:27.187Z,94.93
2022-11-11T19:56:50.426Z,95.15
2022-11-11T19:59:12.596Z,95.61
2022-11-11T20:01:35.210Z,95.56
2022-11-11T20:03:58.782Z,95.17
2022-11-11T20:06:23.746Z,93.96
2022-11-11T20:08:45.607Z,93.68
2022-11-11T20:11:09.310Z,93.06
2022-11-11T20:13:32.549Z,92.97
2022-11-11T20:15:54.305Z,93.45
2022-11-11T20:18:17.258Z,93.85
2022-11-11T20:20:38.722Z,94.41
2022-11-11T20:23:00.232Z,94.55
2022-11-11T20:25:22.729Z,94.70
2022-11-11T20:27:44.226Z,95.66
2022-11-11T20:30:08.387Z,95.75
2022-11-11T20:32:30.469Z,95.61
2022-11-11T20:34:52.086Z,95.92
2022-11-11T20:37:13.856Z,97.27
2022-11-11T20:39:35.753Z,96.93
2022-11-11T20:41:57.665Z,97.17
2022-11-11T20:44:19.238Z,97.51
2022-11-11T20:46:42.742Z,97.11
2022-11-11T20:49:05.576Z,96.91
2022-11-11T20:51:27.702Z,97.20
2022-11-11T20:53:49.602Z,96.86
2022-11-11T20:56:12.991Z,96.70
2022-11-11T20:58:35.838Z,96.69
2022-11-11T21:01:02.418Z,96.88
2022-11-11T21:03:25.952Z,95.72
2022-11-11T21:05:47.972Z,97.09
2022-11-11T21:08:09.835Z,96.91
2022-11-11T21:10:31.573Z,96.97
2022-11-11T21:12:53.850Z,96.26
2022-11-11T21:15:15.644Z,96.52
2022-11-11T21:17:37.776Z,96.09
2022-11-11T21:20:01.418Z,96.72
2022-11-11T21:22:23.407Z,97.63
2022-11-11T21:24:46.052Z,96.41
2022-11-11T21:27:07.821Z,96.71
2022-11-11T21:29:30.042Z,96.03
2022-11-11T21:31:52.980Z,95.10
2022-11-11T21:34:17.507Z,95.30
2022-11-11T21:36:43.104Z,95.12
2022-11-11T21:39:06.662Z,95.16
2022-11-11T21:41:29.005Z,95.03
2022-11-11T21:43:56.520Z,94.48
2022-11-11T21:46:20.675Z,94.88
2022-11-11T21:48:55.707Z,95.26
2022-11-11T21:51:23.660Z,96.07
2022-11-11T21:53:56.766Z,94.98
2022-11-11T21:56:25.536Z,95.10
2022-11-11T21:58:51.715Z,95.57
2022-11-11T22:01:15.298Z,94.99
2022-11-11T22:03:40.989Z,94.81
2022-11-11T22:06:07.937Z,94.66
2022-11-11T22:08:30.609Z,94.58
2022-11-11T22:10:55.368Z,95.19
2022-11-11T22:13:18.412Z,96.53
2022-11-11T22:15:40.715Z,96.54
2022-11-11T22:18:05.288Z,95.99
2022-11-11T22:20:38.626Z,95.79
2022-11-11T22:23:02.082Z,96.55
2022-11-11T22:25:30.151Z,96.33
2022-11-11T22:27:56.750Z,96.44
2022-11-11T22:30:20.579Z,95.70
2022-11-11T22:32:44.358Z,96.58
2022-11-11T22:35:08.410Z,96.02
2022-11-11T22:37:31.510Z,95.31
2022-11-11T22:39:54.971Z,95.25
2022-11-11T22:42:21.606Z,95.94
2022-11-11T22:44:46.380Z,96.07
2022-11-11T22:47:10.113Z,96.71
2022-11-11T22:49:34.850Z,96.38
2022-11-11T22:52:00.111Z,96.46
2022-11-11T22:54:23.844Z,96.41
2022-11-11T22:56:47.764Z,95.98
2022-11-11T22:59:11.614Z,95.09
2022-11-11T23:01:41.801Z,95.94
2022-11-11T23:04:06.289Z,95.91
2022-11-11T23:06:30.822Z,95.71
2022-11-11T23:08:52.830Z,96.79
2022-11-11T23:11:15.749Z,96.32
2022-11-11T23:13:38.366Z,95.26
2022-11-11T23:16:00.307Z,94.69
2022-11-11T23:18:24.758Z,95.69
2022-11-11T23:20:54.362Z,93.85
2022-11-11T23:23:16.174Z,94.31
2022-11-11T23:25:38.114Z,93.80
2022-11-11T23:28:02.799Z,93.45
2022-11-11T23:30:24.611Z,93.79
2022-11-11T23:32:46.737Z,93.76
2022-11-11T23:35:10.864Z,93.11
2022-11-11T23:37:32.810Z,94.53
2022-11-11T23:39:55.154Z,94.53
2022-11-11T23:42:17.119Z,93.29
2022-11-11T23:44:39.344Z,94.36
2022-11-11T23:47:01.847Z,95.53
2022-11-11T23:49:24.558Z,95.54
2022-11-11T23:51:52.766Z,96.40
2022-11-11T23:54:17.816Z,96.42
2022-11-11T23:56:39.504Z,95.44
2022-11-11T23:59:01.595Z,96.44
